createdAt,value
2018-07-27T00:02:06.636Z,51.95
2018-07-27T00:07:09.122Z,51.79
2018-07-27T00:12:11.612Z,51.55
2018-07-27T00:17:14.092Z,51.93
2018-07-27T00:22:16.517Z,51.94
2018-07-27T00:27:18.680Z,52.40
2018-07-27T00:32:20.832Z,52.22
2018-07-27T00:37:22.994Z,52.25
2018-07-27T00:42:27.867Z,52.53
2018-07-27T00:47:29.983Z,52.89
2018-07-27T00:52:32.105Z,52.85
2018-07-27T00:57:34.214Z,53.36
2018-07-27T01:02:36.340Z,53.41
2018-07-27T01:07:38.482Z,53.45
2018-07-27T01:12:40.642Z,53.89
2018-07-27T01:17:42.786Z,54.01
2018-07-27T01:22:45.580Z,53.80
2018-07-27T01:27:47.736Z,54.08
2018-07-27T01:32:49.931Z,54.30
2018-07-27T01:37:52.056Z,54.10
2018-07-27T01:42:54.222Z,54.28
2018-07-27T01:47:56.318Z,54.07
2018-07-27T01:52:58.496Z,53.92
2018-07-27T01:58:00.615Z,53.81
2018-07-27T02:03:02.757Z,53.66
2018-07-27T02:08:04.939Z,53.81
2018-07-27T02:13:07.073Z,53.82
2018-07-27T02:18:09.222Z,53.50
2018-07-27T02:23:11.313Z,53.75
2018-07-27T02:28:13.476Z,53.65
2018-07-27T02:33:15.593Z,53.65
2018-07-27T02:38:17.698Z,53.59
2018-07-27T02:43:19.856Z,53.53
2018-07-27T02:48:21.960Z,53.67
2018-07-27T02:53:24.135Z,53.59
2018-07-27T02:58:26.280Z,53.73
2018-07-27T03:03:28.426Z,54.03
2018-07-27T03:08:30.558Z,54.14
2018-07-27T03:13:32.707Z,54.19
2018-07-27T03:18:34.809Z,54.71
2018-07-27T03:23:36.915Z,54.69
2018-07-27T03:28:39.048Z,54.79
2018-07-27T03:33:41.172Z,55.02
2018-07-27T03:38:43.306Z,55.42
2018-07-27T03:43:45.483Z,55.75
2018-07-27T03:48:47.618Z,56.18
2018-07-27T03:53:49.730Z,56.57
2018-07-27T03:58:52.315Z,57.12
2018-07-27T04:03:54.518Z,57.37
2018-07-27T04:08:56.611Z,57.91
2018-07-27T04:13:58.718Z,58.20
2018-07-27T04:19:01.122Z,58.13
2018-07-27T04:24:03.252Z,58.72
2018-07-27T04:29:05.393Z,59.61
2018-07-27T04:34:07.523Z,60.01
2018-07-27T04:39:10.491Z,59.95
2018-07-27T04:44:12.672Z,59.50
2018-07-27T04:49:14.777Z,59.14
2018-07-27T04:54:16.963Z,59.13
2018-07-27T04:59:19.132Z,59.02
2018-07-27T05:04:21.277Z,58.17
2018-07-27T05:09:23.519Z,58.47
2018-07-27T05:14:25.685Z,58.14
2018-07-27T05:19:27.837Z,57.49
2018-07-27T05:24:29.962Z,56.80
2018-07-27T05:29:32.134Z,57.05
2018-07-27T05:34:34.286Z,57.48
2018-07-27T05:39:36.405Z,56.86
2018-07-27T05:44:38.568Z,56.33
2018-07-27T05:49:40.693Z,55.36
2018-07-27T05:54:42.876Z,55.62
2018-07-27T05:59:45.012Z,55.01
2018-07-27T06:04:47.203Z,54.11
2018-07-27T06:09:49.323Z,53.87
2018-07-27T06:14:51.415Z,53.59
2018-07-27T06:19:53.573Z,53.20
2018-07-27T06:24:55.747Z,51.86
2018-07-27T06:29:57.983Z,52.43
2018-07-27T06:35:00.095Z,52.55
2018-07-27T06:40:02.332Z,52.46
2018-07-27T06:45:05.620Z,51.78
2018-07-27T06:50:07.760Z,51.74
2018-07-27T06:55:09.899Z,50.46
2018-07-27T07:00:12.058Z,50.45
2018-07-27T07:05:14.212Z,50.30
2018-07-27T07:10:16.380Z,49.49
2018-07-27T07:15:18.594Z,48.08
2018-07-27T07:20:20.788Z,48.34
2018-07-27T07:25:22.982Z,47.15
2018-07-27T07:30:25.105Z,45.78
2018-07-27T07:35:27.280Z,45.83
2018-07-27T07:40:29.447Z,45.42
2018-07-27T07:45:31.648Z,44.26
2018-07-27T07:50:33.829Z,46.12
2018-07-27T07:55:36.218Z,46.87
2018-07-27T08:00:38.338Z,47.84
2018-07-27T08:05:40.487Z,48.60
2018-07-27T08:10:43.888Z,48.39
2018-07-27T08:15:46.094Z,49.47
2018-07-27T08:20:48.270Z,50.56
2018-07-27T08:27:01.446Z,50.72
2018-07-27T08:32:03.957Z,50.41
2018-07-27T08:37:06.451Z,49.87
2018-07-27T08:42:08.657Z,50.49
2018-07-27T08:47:10.860Z,49.34
2018-07-27T08:52:15.623Z,49.97
2018-07-27T08:57:17.807Z,49.16
2018-07-27T09:02:19.940Z,49.25
2018-07-27T09:07:22.075Z,49.57
2018-07-27T09:12:24.234Z,49.73
2018-07-27T09:17:26.401Z,49.44
2018-07-27T09:22:28.515Z,48.00
2018-07-27T09:27:30.736Z,47.68
2018-07-27T09:32:32.892Z,48.26
2018-07-27T09:37:35.055Z,47.84
2018-07-27T09:42:37.298Z,48.34
2018-07-27T09:47:39.552Z,47.62
2018-07-27T09:52:42.197Z,46.80
2018-07-27T09:57:44.494Z,46.54
2018-07-27T10:02:46.843Z,46.67
2018-07-27T10:07:48.997Z,47.47
2018-07-27T10:12:51.466Z,47.87
2018-07-27T10:17:53.937Z,47.34
2018-07-27T10:22:56.123Z,47.61
2018-07-27T10:27:58.323Z,47.54
2018-07-27T10:33:00.527Z,47.56
2018-07-27T10:38:02.714Z,46.83
2018-07-27T10:43:04.947Z,46.36
2018-07-27T10:48:07.132Z,47.52
2018-07-27T10:53:09.288Z,45.66
2018-07-27T10:58:11.505Z,44.49
2018-07-27T11:03:13.691Z,44.17
2018-07-27T11:08:15.889Z,44.09
2018-07-27T11:13:18.056Z,43.33
2018-07-27T11:18:20.231Z,43.24
2018-07-27T11:23:22.738Z,42.38
2018-07-27T11:28:24.923Z,43.81
2018-07-27T11:33:27.508Z,43.70
2018-07-27T11:38:29.727Z,42.89
2018-07-27T11:43:31.974Z,40.95
2018-07-27T11:48:34.170Z,41.27
2018-07-27T11:53:36.732Z,42.22
2018-07-27T11:58:38.925Z,41.39
2018-07-27T12:03:41.152Z,41.38
2018-07-27T12:08:43.318Z,42.31
2018-07-27T12:13:45.521Z,41.03
2018-07-27T12:18:47.632Z,40.99
2018-07-27T12:23:49.845Z,41.67
2018-07-27T12:28:52.043Z,40.98
2018-07-27T12:33:54.834Z,41.85
2018-07-27T12:38:57.056Z,43.04
2018-07-27T12:43:59.233Z,43.33
2018-07-27T12:49:01.514Z,43.12
2018-07-27T12:54:03.696Z,43.33
2018-07-27T12:59:05.880Z,41.77
2018-07-27T13:04:08.080Z,42.61
2018-07-27T13:09:11.375Z,42.01
2018-07-27T13:14:13.555Z,42.17
2018-07-27T13:19:15.865Z,42.35
2018-07-27T13:24:18.073Z,42.71
2018-07-27T13:29:20.284Z,43.12
2018-07-27T13:34:33.253Z,43.15
2018-07-27T13:39:35.958Z,43.04
2018-07-27T13:44:38.425Z,43.23
2018-07-27T13:49:40.650Z,42.68
2018-07-27T13:54:43.131Z,42.80
2018-07-27T13:59:45.318Z,41.29
2018-07-27T14:04:47.501Z,41.37
2018-07-27T14:09:49.640Z,41.32
2018-07-27T14:14:51.842Z,41.63
2018-07-27T14:19:54.047Z,42.47
2018-07-27T14:24:56.227Z,42.84
2018-07-27T14:29:58.420Z,41.77
2018-07-27T14:35:00.574Z,41.97
2018-07-27T14:40:02.768Z,42.03
2018-07-27T14:45:05.006Z,41.49
2018-07-27T14:50:07.240Z,40.47
2018-07-27T14:55:09.400Z,41.36
2018-07-27T15:00:11.569Z,40.15
2018-07-27T15:05:13.672Z,41.04
2018-07-27T15:10:15.846Z,40.65
2018-07-27T15:15:17.959Z,40.92
2018-07-27T15:20:20.182Z,40.06
2018-07-27T15:25:22.455Z,40.19
2018-07-27T15:30:24.609Z,40.03
2018-07-27T15:35:26.986Z,39.87
2018-07-27T15:40:29.156Z,39.66
2018-07-27T15:45:31.315Z,40.18
2018-07-27T15:50:33.496Z,40.28
2018-07-27T15:55:35.696Z,40.16
2018-07-27T16:00:37.824Z,41.52
2018-07-27T16:05:39.997Z,40.87
2018-07-27T16:10:42.150Z,41.54
2018-07-27T16:15:44.284Z,41.48
2018-07-27T16:20:46.428Z,40.98
2018-07-27T16:25:48.610Z,41.15
2018-07-27T16:30:50.814Z,41.05
2018-07-27T16:35:53.417Z,41.03
2018-07-27T16:40:55.541Z,41.00
2018-07-27T16:45:57.757Z,41.63
2018-07-27T16:50:59.952Z,42.49
2018-07-27T16:56:02.106Z,41.62
2018-07-27T17:01:04.314Z,42.08
2018-07-27T17:06:06.544Z,42.89
2018-07-27T17:11:08.708Z,42.75
2018-07-27T17:16:11.140Z,41.26
2018-07-27T17:21:13.358Z,41.35
2018-07-27T17:26:15.504Z,41.45
2018-07-27T17:31:17.638Z,41.53
2018-07-27T17:36:19.783Z,41.63
2018-07-27T17:41:21.953Z,41.13
2018-07-27T17:46:24.148Z,41.75
2018-07-27T17:51:26.359Z,41.89
2018-07-27T17:56:28.538Z,42.22
2018-07-27T18:01:30.771Z,43.55
2018-07-27T18:06:32.949Z,43.98
2018-07-27T18:11:35.111Z,45.13
2018-07-27T18:16:37.365Z,45.73
2018-07-27T18:21:39.558Z,45.96
2018-07-27T18:26:41.773Z,47.77
2018-07-27T18:31:43.947Z,47.84
2018-07-27T18:36:46.173Z,48.34
2018-07-27T18:41:48.333Z,49.01
2018-07-27T18:46:50.463Z,48.59
2018-07-27T18:51:52.732Z,49.13
2018-07-27T18:56:54.944Z,49.40
2018-07-27T19:01:57.157Z,49.37
2018-07-27T19:06:59.353Z,51.00
2018-07-27T19:12:01.537Z,51.04
2018-07-27T19:17:03.744Z,51.91
2018-07-27T19:22:06.166Z,53.55
2018-07-27T19:27:08.656Z,53.44
2018-07-27T19:32:10.913Z,53.87
2018-07-27T19:37:13.117Z,55.36
2018-07-27T19:42:15.342Z,55.86
2018-07-27T19:47:17.512Z,55.74
2018-07-27T19:52:19.722Z,56.21
2018-07-27T19:57:21.928Z,56.04
2018-07-27T20:02:24.292Z,56.44
2018-07-27T20:07:26.424Z,56.64
2018-07-27T20:12:28.650Z,56.88
2018-07-27T20:17:31.270Z,56.21
2018-07-27T20:22:33.538Z,56.80
2018-07-27T20:27:35.916Z,56.75
2018-07-27T20:32:38.425Z,56.79
2018-07-27T20:37:40.639Z,56.63
2018-07-27T20:42:42.904Z,56.61
2018-07-27T20:47:45.113Z,57.43
2018-07-27T20:52:47.355Z,57.23
2018-07-27T20:57:49.632Z,57.34
2018-07-27T21:02:51.874Z,57.35
2018-07-27T21:07:54.554Z,58.06
2018-07-27T21:12:56.727Z,57.71
2018-07-27T21:17:58.982Z,58.18
2018-07-27T21:23:01.228Z,57.92
2018-07-27T21:28:03.435Z,58.24
2018-07-27T21:33:05.798Z,58.19
2018-07-27T21:38:08.161Z,58.00
2018-07-27T21:43:10.368Z,58.59
2018-07-27T21:48:13.243Z,58.60
2018-07-27T21:53:15.659Z,58.49
2018-07-27T21:58:17.957Z,58.89
2018-07-27T22:03:20.222Z,58.70
2018-07-27T22:08:22.467Z,58.91
2018-07-27T22:13:24.731Z,59.09
2018-07-27T22:18:26.867Z,60.49
2018-07-27T22:23:30.021Z,60.33
2018-07-27T22:28:32.370Z,59.99
2018-07-27T22:33:34.923Z,61.01
2018-07-27T22:38:37.216Z,61.18
2018-07-27T22:43:39.384Z,62.84
2018-07-27T22:48:41.616Z,63.38
2018-07-27T22:53:43.793Z,63.77
2018-07-27T22:58:46.012Z,64.42
2018-07-27T23:03:48.215Z,65.20
2018-07-27T23:08:50.387Z,65.56
2018-07-27T23:13:52.563Z,65.72
2018-07-27T23:18:54.738Z,65.59
2018-07-27T23:23:56.890Z,66.26
2018-07-27T23:28:59.070Z,65.83
2018-07-27T23:34:01.224Z,65.89
2018-07-27T23:39:07.080Z,65.44
2018-07-27T23:44:09.219Z,65.05
2018-07-27T23:49:11.375Z,64.19
2018-07-27T23:54:13.558Z,64.32
2018-07-27T23:59:15.688Z,63.26
